sensor_id;sensor_type;location;lat;lon;timestamp;temperature;humidity
4429;DHT22;2227;47.810;8.810;2023-08-30T03:47:57;13.80;99.90
4429;DHT22;2227;47.810;8.810;2023-08-30T03:50:24;13.80;99.90
4429;DHT22;2227;47.810;8.810;2023-08-30T03:52:51;13.70;99.90
4429;DHT22;2227;47.810;8.810;2023-08-30T03:55:17;13.70;99.90
4429;DHT22;2227;47.810;8.810;2023-08-30T03:57:44;13.70;99.90
4429;DHT22;2227;47.810;8.810;2023-08-30T04:00:11;13.70;99.90
4429;DHT22;2227;47.810;8.810;2023-08-30T04:02:38;13.70;99.90
4429;DHT22;2227;47.810;8.810;2023-08-30T04:05:05;13.70;99.90
4429;DHT22;2227;47.810;8.810;2023-08-30T04:07:38;13.60;99.90
4429;DHT22;2227;47.810;8.810;2023-08-30T04:10:05;13.60;99.90
4429;DHT22;2227;47.810;8.810;2023-08-30T04:12:34;13.60;99.90
4429;DHT22;2227;47.810;8.810;2023-08-30T04:15:04;13.60;99.90
4429;DHT22;2227;47.810;8.810;2023-08-30T04:17:31;13.60;99.90
4429;DHT22;2227;47.810;8.810;2023-08-30T04:19:58;13.60;99.90
4429;DHT22;2227;47.810;8.810;2023-08-30T04:22:24;13.60;99.90
4429;DHT22;2227;47.810;8.810;2023-08-30T04:24:51;13.60;99.90
4429;DHT22;2227;47.810;8.810;2023-08-30T04:27:18;13.60;99.90
4429;DHT22;2227;47.810;8.810;2023-08-30T04:29:44;13.60;99.90
4429;DHT22;2227;47.810;8.810;2023-08-30T04:32:11;13.60;99.90
4429;DHT22;2227;47.810;8.810;2023-08-30T04:34:38;13.50;99.90
4429;DHT22;2227;47.810;8.810;2023-08-30T04:37:05;13.50;99.90
4429;DHT22;2227;47.810;8.810;2023-08-30T04:39:31;13.50;99.90
4429;DHT22;2227;47.810;8.810;2023-08-30T04:41:58;13.50;99.90
4429;DHT22;2227;47.810;8.810;2023-08-30T04:44:26;13.40;99.90
4429;DHT22;2227;47.810;8.810;2023-08-30T04:46:54;13.40;99.90
4429;DHT22;2227;47.810;8.810;2023-08-30T04:49:21;13.30;99.90
4429;DHT22;2227;47.810;8.810;2023-08-30T04:51:48;13.30;99.90
4429;DHT22;2227;47.810;8.810;2023-08-30T04:54:14;13.30;99.90
4429;DHT22;2227;47.810;8.810;2023-08-30T04:56:41;13.30;99.90
4429;DHT22;2227;47.810;8.810;2023-08-30T04:59:08;13.30;99.90
4429;DHT22;2227;47.810;8.810;2023-08-30T05:01:35;13.30;99.90
4429;DHT22;2227;47.810;8.810;2023-08-30T05:04:02;13.30;99.90
4429;DHT22;2227;47.810;8.810;2023-08-30T05:06:28;13.30;99.90
4429;DHT22;2227;47.810;8.810;2023-08-30T05:08:55;13.30;99.90
4429;DHT22;2227;47.810;8.810;2023-08-30T05:11:22;13.30;99.90
4429;DHT22;2227;47.810;8.810;2023-08-30T05:13:48;13.30;99.90
4429;DHT22;2227;47.810;8.810;2023-08-30T05:16:15;13.20;99.90
4429;DHT22;2227;47.810;8.810;2023-08-30T05:18:42;13.20;99.90
4429;DHT22;2227;47.810;8.810;2023-08-30T05:21:09;13.20;99.90
4429;DHT22;2227;47.810;8.810;2023-08-30T05:23:35;13.20;99.90
4429;DHT22;2227;47.810;8.810;2023-08-30T05:26:05;13.20;99.90
4429;DHT22;2227;47.810;8.810;2023-08-30T05:28:32;13.20;99.90
4429;DHT22;2227;47.810;8.810;2023-08-30T05:30:58;13.10;99.90
4429;DHT22;2227;47.810;8.810;2023-08-30T05:33:25;13.20;99.90
4429;DHT22;2227;47.810;8.810;2023-08-30T05:35:52;13.20;99.90
4429;DHT22;2227;47.810;8.810;2023-08-30T05:38:19;13.20;99.90
4429;DHT22;2227;47.810;8.810;2023-08-30T05:40:45;13.30;99.90
4429;DHT22;2227;47.810;8.810;2023-08-30T05:43:12;13.30;99.90
4429;DHT22;2227;47.810;8.810;2023-08-30T05:45:39;13.40;99.90
4429;DHT22;2227;47.810;8.810;2023-08-30T05:48:06;13.40;99.90
4429;DHT22;2227;47.810;8.810;2023-08-30T05:50:33;13.50;99.90
4429;DHT22;2227;47.810;8.810;2023-08-30T05:53:00;13.50;99.90
4429;DHT22;2227;47.810;8.810;2023-08-30T05:55:27;13.60;99.90
4429;DHT22;2227;47.810;8.810;2023-08-30T05:57:53;13.60;99.90
4429;DHT22;2227;47.810;8.810;2023-08-30T06:00:20;13.60;99.90
4429;DHT22;2227;47.810;8.810;2023-08-30T06:02:47;13.70;99.90
4429;DHT22;2227;47.810;8.810;2023-08-30T06:05:14;13.70;99.90
4429;DHT22;2227;47.810;8.810;2023-08-30T06:07:41;13.80;99.90
4429;DHT22;2227;47.810;8.810;2023-08-30T06:10:08;13.80;99.90
4429;DHT22;2227;47.810;8.810;2023-08-30T06:12:34;13.80;99.90
4429;DHT22;2227;47.810;8.810;2023-08-30T06:15:01;13.80;99.90
4429;DHT22;2227;47.810;8.810;2023-08-30T06:17:28;13.80;99.90
4429;DHT22;2227;47.810;8.810;2023-08-30T06:19:55;13.80;99.90
4429;DHT22;2227;47.810;8.810;2023-08-30T06:22:21;13.70;99.90
4429;DHT22;2227;47.810;8.810;2023-08-30T06:24:48;13.80;99.90
4429;DHT22;2227;47.810;8.810;2023-08-30T06:27:15;13.80;99.90
4429;DHT22;2227;47.810;8.810;2023-08-30T06:29:42;13.80;99.90
4429;DHT22;2227;47.810;8.810;2023-08-30T06:32:09;13.60;99.90
4429;DHT22;2227;47.810;8.810;2023-08-30T06:34:35;13.60;99.90
4429;DHT22;2227;47.810;8.810;2023-08-30T06:37:02;13.70;99.90
4429;DHT22;2227;47.810;8.810;2023-08-30T06:39:33;13.60;99.90
4429;DHT22;2227;47.810;8.810;2023-08-30T06:42:02;13.60;99.90
4429;DHT22;2227;47.810;8.810;2023-08-30T06:44:28;13.60;99.90
4429;DHT22;2227;47.810;8.810;2023-08-30T06:46:56;13.40;99.90
4429;DHT22;2227;47.810;8.810;2023-08-30T06:49:26;13.50;99.90
4429;DHT22;2227;47.810;8.810;2023-08-30T06:51:53;13.50;99.90
4429;DHT22;2227;47.810;8.810;2023-08-30T06:54:20;13.70;99.90
4429;DHT22;2227;47.810;8.810;2023-08-30T06:57:00;13.80;99.90
4429;DHT22;2227;47.810;8.810;2023-08-30T06:59:27;14.10;99.90
4429;DHT22;2227;47.810;8.810;2023-08-30T07:01:54;14.30;99.90
4429;DHT22;2227;47.810;8.810;2023-08-30T07:04:21;14.50;99.90
4429;DHT22;2227;47.810;8.810;2023-08-30T07:06:48;14.60;99.90
4429;DHT22;2227;47.810;8.810;2023-08-30T07:09:14;14.60;99.90
4429;DHT22;2227;47.810;8.810;2023-08-30T07:11:44;14.60;99.90
4429;DHT22;2227;47.810;8.810;2023-08-30T07:14:11;14.60;99.90
4429;DHT22;2227;47.810;8.810;2023-08-30T07:16:39;14.70;99.90
4429;DHT22;2227;47.810;8.810;2023-08-30T07:19:06;14.70;99.90
4429;DHT22;2227;47.810;8.810;2023-08-30T07:21:33;14.60;99.90
4429;DHT22;2227;47.810;8.810;2023-08-30T07:24:02;14.50;99.90
4429;DHT22;2227;47.810;8.810;2023-08-30T07:26:29;14.40;99.90
4429;DHT22;2227;47.810;8.810;2023-08-30T07:28:56;14.30;99.90
4429;DHT22;2227;47.810;8.810;2023-08-30T07:31:22;14.40;99.90
4429;DHT22;2227;47.810;8.810;2023-08-30T07:33:49;14.60;99.90
4429;DHT22;2227;47.810;8.810;2023-08-30T07:36:16;14.80;99.90
4429;DHT22;2227;47.810;8.810;2023-08-30T07:38:43;15.00;99.90
4429;DHT22;2227;47.810;8.810;2023-08-30T07:41:09;15.30;99.90
4429;DHT22;2227;47.810;8.810;2023-08-30T07:43:38;15.30;99.90
4429;DHT22;2227;47.810;8.810;2023-08-30T07:46:05;15.30;99.90
4429;DHT22;2227;47.810;8.810;2023-08-30T07:48:32;15.30;99.90
4429;DHT22;2227;47.810;8.810;2023-08-30T07:50:58;15.50;99.90
4429;DHT22;2227;47.810;8.810;2023-08-30T07:53:25;15.70;99.90
4429;DHT22;2227;47.810;8.810;2023-08-30T07:55:51;15.90;99.90
4429;DHT22;2227;47.810;8.810;2023-08-30T07:58:18;16.00;99.90
4429;DHT22;2227;47.810;8.810;2023-08-30T08:00:45;16.20;99.90
4429;DHT22;2227;47.810;8.810;2023-08-30T08:03:12;16.20;99.90
4429;DHT22;2227;47.810;8.810;2023-08-30T08:05:38;16.30;99.90
4429;DHT22;2227;47.810;8.810;2023-08-30T08:08:07;16.50;99.90
4429;DHT22;2227;47.810;8.810;2023-08-30T08:10:34;16.70;99.90
4429;DHT22;2227;47.810;8.810;2023-08-30T08:13:00;16.70;99.90
4429;DHT22;2227;47.810;8.810;2023-08-30T08:15:28;16.60;99.90
4429;DHT22;2227;47.810;8.810;2023-08-30T08:17:57;16.50;99.90
4429;DHT22;2227;47.810;8.810;2023-08-30T08:20:24;16.30;99.90
4429;DHT22;2227;47.810;8.810;2023-08-30T08:22:50;16.20;99.90
4429;DHT22;2227;47.810;8.810;2023-08-30T08:25:17;16.10;99.90
4429;DHT22;2227;47.810;8.810;2023-08-30T08:27:44;16.10;99.90
4429;DHT22;2227;47.810;8.810;2023-08-30T08:30:11;16.30;99.90
4429;DHT22;2227;47.810;8.810;2023-08-30T08:32:38;16.20;99.90
4429;DHT22;2227;47.810;8.810;2023-08-30T08:35:05;16.40;99.90
4429;DHT22;2227;47.810;8.810;2023-08-30T08:37:32;16.60;99.90
4429;DHT22;2227;47.810;8.810;2023-08-30T08:39:59;16.70;99.90
4429;DHT22;2227;47.810;8.810;2023-08-30T08:42:26;16.70;99.90
4429;DHT22;2227;47.810;8.810;2023-08-30T08:44:54;16.50;99.90
4429;DHT22;2227;47.810;8.810;2023-08-30T08:47:21;16.50;99.90
4429;DHT22;2227;47.810;8.810;2023-08-30T08:49:48;16.60;99.90
4429;DHT22;2227;47.810;8.810;2023-08-30T08:52:16;16.60;99.90
4429;DHT22;2227;47.810;8.810;2023-08-30T08:54:57;17.00;99.90
4429;DHT22;2227;47.810;8.810;2023-08-30T08:57:24;17.20;99.90
4429;DHT22;2227;47.810;8.810;2023-08-30T08:59:50;17.00;99.90
4429;DHT22;2227;47.810;8.810;2023-08-30T09:02:17;17.00;99.90
4429;DHT22;2227;47.810;8.810;2023-08-30T09:04:44;17.00;99.90
4429;DHT22;2227;47.810;8.810;2023-08-30T09:07:11;17.00;99.90
4429;DHT22;2227;47.810;8.810;2023-08-30T09:09:38;16.90;99.90
4429;DHT22;2227;47.810;8.810;2023-08-30T09:12:05;16.80;99.90
4429;DHT22;2227;47.810;8.810;2023-08-30T09:14:32;16.90;99.90
4429;DHT22;2227;47.810;8.810;2023-08-30T09:17:00;17.10;99.90
4429;DHT22;2227;47.810;8.810;2023-08-30T09:19:28;17.10;99.90
4429;DHT22;2227;47.810;8.810;2023-08-30T09:21:57;17.40;99.90
4429;DHT22;2227;47.810;8.810;2023-08-30T09:24:24;18.20;99.90
4429;DHT22;2227;47.810;8.810;2023-08-30T09:26:53;18.90;99.90
4429;DHT22;2227;47.810;8.810;2023-08-30T09:29:21;19.30;99.90
4429;DHT22;2227;47.810;8.810;2023-08-30T09:31:51;19.40;99.90
4429;DHT22;2227;47.810;8.810;2023-08-30T09:34:23;19.60;99.90
4429;DHT22;2227;47.810;8.810;2023-08-30T09:36:54;19.80;99.90
4429;DHT22;2227;47.810;8.810;2023-08-30T09:39:22;19.70;99.90
4429;DHT22;2227;47.810;8.810;2023-08-30T09:41:49;20.00;99.90
4429;DHT22;2227;47.810;8.810;2023-08-30T09:44:18;20.50;99.90
4429;DHT22;2227;47.810;8.810;2023-08-30T09:46:51;21.10;99.90
4429;DHT22;2227;47.810;8.810;2023-08-30T09:49:21;22.20;99.90
4429;DHT22;2227;47.810;8.810;2023-08-30T09:51:50;22.80;99.90
4429;DHT22;2227;47.810;8.810;2023-08-30T09:54:21;22.30;99.90
4429;DHT22;2227;47.810;8.810;2023-08-30T09:56:50;21.70;99.90
4429;DHT22;2227;47.810;8.810;2023-08-30T09:59:22;21.30;99.90
4429;DHT22;2227;47.810;8.810;2023-08-30T10:01:50;21.00;99.90
4429;DHT22;2227;47.810;8.810;2023-08-30T10:04:19;20.80;99.90
4429;DHT22;2227;47.810;8.810;2023-08-30T10:06:47;20.50;99.90
4429;DHT22;2227;47.810;8.810;2023-08-30T10:09:15;20.20;99.90
4429;DHT22;2227;47.810;8.810;2023-08-30T10:12:03;19.80;99.90
4429;DHT22;2227;47.810;8.810;2023-08-30T10:14:30;19.90;99.90
4429;DHT22;2227;47.810;8.810;2023-08-30T10:17:02;19.90;99.90
4429;DHT22;2227;47.810;8.810;2023-08-30T10:19:32;20.10;99.90
4429;DHT22;2227;47.810;8.810;2023-08-30T10:22:06;20.80;99.90
4429;DHT22;2227;47.810;8.810;2023-08-30T10:24:44;21.90;99.90
4429;DHT22;2227;47.810;8.810;2023-08-30T10:27:34;22.10;99.90
4429;DHT22;2227;47.810;8.810;2023-08-30T10:30:02;23.40;99.90
4429;DHT22;2227;47.810;8.810;2023-08-30T10:32:31;24.60;99.90
4429;DHT22;2227;47.810;8.810;2023-08-30T10:35:01;25.70;99.90
4429;DHT22;2227;47.810;8.810;2023-08-30T10:37:30;25.90;99.90
4429;DHT22;2227;47.810;8.810;2023-08-30T10:40:00;25.50;99.90
4429;DHT22;2227;47.810;8.810;2023-08-30T10:42:30;25.30;99.90
4429;DHT22;2227;47.810;8.810;2023-08-30T10:47:40;25.30;98.70
4429;DHT22;2227;47.810;8.810;2023-08-30T10:50:09;24.70;99.90
4429;DHT22;2227;47.810;8.810;2023-08-30T10:52:37;24.80;99.90
4429;DHT22;2227;47.810;8.810;2023-08-30T10:55:14;24.20;99.90
4429;DHT22;2227;47.810;8.810;2023-08-30T10:57:43;24.30;99.90
4429;DHT22;2227;47.810;8.810;2023-08-30T11:00:18;24.20;99.90
4429;DHT22;2227;47.810;8.810;2023-08-30T11:02:47;24.40;99.90
4429;DHT22;2227;47.810;8.810;2023-08-30T11:05:24;24.50;99.90
4429;DHT22;2227;47.810;8.810;2023-08-30T11:07:52;24.30;99.90
4429;DHT22;2227;47.810;8.810;2023-08-30T11:10:19;24.10;99.90
4429;DHT22;2227;47.810;8.810;2023-08-30T11:12:47;23.20;99.90
4429;DHT22;2227;47.810;8.810;2023-08-30T11:15:16;22.80;99.90
4429;DHT22;2227;47.810;8.810;2023-08-30T11:17:43;22.10;99.90
4429;DHT22;2227;47.810;8.810;2023-08-30T11:20:12;22.10;99.90
4429;DHT22;2227;47.810;8.810;2023-08-30T11:22:41;22.40;99.90
4429;DHT22;2227;47.810;8.810;2023-08-30T11:25:10;22.90;99.90
4429;DHT22;2227;47.810;8.810;2023-08-30T11:27:37;23.50;99.90
4429;DHT22;2227;47.810;8.810;2023-08-30T11:30:08;23.50;99.90
4429;DHT22;2227;47.810;8.810;2023-08-30T11:32:36;23.50;99.90
4429;DHT22;2227;47.810;8.810;2023-08-30T11:35:04;24.00;99.90
4429;DHT22;2227;47.810;8.810;2023-08-30T11:37:32;24.20;99.90
4429;DHT22;2227;47.810;8.810;2023-08-30T11:40:00;24.00;99.90
4429;DHT22;2227;47.810;8.810;2023-08-30T11:42:27;23.80;99.90
4429;DHT22;2227;47.810;8.810;2023-08-30T11:44:54;24.00;99.90
4429;DHT22;2227;47.810;8.810;2023-08-30T11:47:25;23.70;99.90
4429;DHT22;2227;47.810;8.810;2023-08-30T11:49:55;23.70;99.10
4429;DHT22;2227;47.810;8.810;2023-08-30T11:52:23;23.20;97.90
4429;DHT22;2227;47.810;8.810;2023-08-30T11:54:51;23.00;99.90
4429;DHT22;2227;47.810;8.810;2023-08-30T11:57:17;23.00;99.90
4429;DHT22;2227;47.810;8.810;2023-08-30T11:59:44;23.10;99.30
4429;DHT22;2227;47.810;8.810;2023-08-30T12:02:12;23.30;99.90
4429;DHT22;2227;47.810;8.810;2023-08-30T12:04:44;23.60;99.80
4429;DHT22;2227;47.810;8.810;2023-08-30T12:07:25;23.70;99.20
4429;DHT22;2227;47.810;8.810;2023-08-30T12:10:04;23.80;99.60
4429;DHT22;2227;47.810;8.810;2023-08-30T12:12:31;23.40;99.50
4429;DHT22;2227;47.810;8.810;2023-08-30T12:14:58;23.00;99.80
4429;DHT22;2227;47.810;8.810;2023-08-30T12:17:25;22.80;99.90
4429;DHT22;2227;47.810;8.810;2023-08-30T12:19:58;22.70;99.90
4429;DHT22;2227;47.810;8.810;2023-08-30T12:22:41;22.90;99.90
4429;DHT22;2227;47.810;8.810;2023-08-30T12:25:18;22.70;99.90
4429;DHT22;2227;47.810;8.810;2023-08-30T12:27:46;22.40;99.90
4429;DHT22;2227;47.810;8.810;2023-08-30T12:30:14;22.00;99.90
4429;DHT22;2227;47.810;8.810;2023-08-30T12:32:44;22.10;99.90
4429;DHT22;2227;47.810;8.810;2023-08-30T12:35:11;21.90;99.90
4429;DHT22;2227;47.810;8.810;2023-08-30T12:37:37;22.10;99.90
4429;DHT22;2227;47.810;8.810;2023-08-30T12:40:05;22.20;99.90
4429;DHT22;2227;47.810;8.810;2023-08-30T12:42:35;22.10;99.90
4429;DHT22;2227;47.810;8.810;2023-08-30T12:45:02;22.00;99.90
4429;DHT22;2227;47.810;8.810;2023-08-30T12:47:30;22.20;99.90
4429;DHT22;2227;47.810;8.810;2023-08-30T12:49:56;22.30;99.90
4429;DHT22;2227;47.810;8.810;2023-08-30T12:52:23;22.40;99.90
4429;DHT22;2227;47.810;8.810;2023-08-30T12:54:50;22.40;99.90
4429;DHT22;2227;47.810;8.810;2023-08-30T12:57:18;22.20;99.90
4429;DHT22;2227;47.810;8.810;2023-08-30T12:59:46;22.40;99.90
4429;DHT22;2227;47.810;8.810;2023-08-30T13:02:13;22.50;99.90
4429;DHT22;2227;47.810;8.810;2023-08-30T13:04:40;22.80;99.90
4429;DHT22;2227;47.810;8.810;2023-08-30T13:07:07;22.80;99.90
4429;DHT22;2227;47.810;8.810;2023-08-30T13:09:33;22.90;99.90
4429;DHT22;2227;47.810;8.810;2023-08-30T13:12:00;23.10;99.90
4429;DHT22;2227;47.810;8.810;2023-08-30T13:14:27;23.20;99.90
4429;DHT22;2227;47.810;8.810;2023-08-30T13:16:53;23.30;99.90
4429;DHT22;2227;47.810;8.810;2023-08-30T13:19:20;23.20;99.50
4429;DHT22;2227;47.810;8.810;2023-08-30T13:21:47;23.20;99.00
4429;DHT22;2227;47.810;8.810;2023-08-30T13:24:14;23.20;97.60
4429;DHT22;2227;47.810;8.810;2023-08-30T13:26:40;22.70;97.90
4429;DHT22;2227;47.810;8.810;2023-08-30T13:29:07;22.30;99.10
4429;DHT22;2227;47.810;8.810;2023-08-30T13:31:34;21.90;99.90
4429;DHT22;2227;47.810;8.810;2023-08-30T13:34:00;21.60;99.90
4429;DHT22;2227;47.810;8.810;2023-08-30T13:36:27;21.20;99.90
4429;DHT22;2227;47.810;8.810;2023-08-30T13:38:57;20.90;99.90
4429;DHT22;2227;47.810;8.810;2023-08-30T13:41:24;20.90;99.90
4429;DHT22;2227;47.810;8.810;2023-08-30T13:43:50;21.10;99.90
4429;DHT22;2227;47.810;8.810;2023-08-30T13:46:17;21.30;99.90
4429;DHT22;2227;47.810;8.810;2023-08-30T13:48:45;21.10;99.90
4429;DHT22;2227;47.810;8.810;2023-08-30T13:51:12;20.70;99.90
4429;DHT22;2227;47.810;8.810;2023-08-30T13:53:38;20.50;99.90
4429;DHT22;2227;47.810;8.810;2023-08-30T13:56:05;20.50;99.90
4429;DHT22;2227;47.810;8.810;2023-08-30T13:58:32;20.50;99.90
4429;DHT22;2227;47.810;8.810;2023-08-30T14:00:58;20.40;99.90
4429;DHT22;2227;47.810;8.810;2023-08-30T14:03:25;20.50;99.90
4429;DHT22;2227;47.810;8.810;2023-08-30T14:05:52;20.60;99.90
4429;DHT22;2227;47.810;8.810;2023-08-30T14:08:18;20.70;99.90
4429;DHT22;2227;47.810;8.810;2023-08-30T14:10:45;20.60;99.90
4429;DHT22;2227;47.810;8.810;2023-08-30T14:13:12;20.60;99.90
4429;DHT22;2227;47.810;8.810;2023-08-30T14:15:41;20.50;99.90
4429;DHT22;2227;47.810;8.810;2023-08-30T14:18:08;20.60;99.90
4429;DHT22;2227;47.810;8.810;2023-08-30T14:20:36;20.70;99.90
4429;DHT22;2227;47.810;8.810;2023-08-30T14:23:02;21.00;99.90
4429;DHT22;2227;47.810;8.810;2023-08-30T14:25:29;21.10;99.90
4429;DHT22;2227;47.810;8.810;2023-08-30T14:27:56;21.10;99.90
4429;DHT22;2227;47.810;8.810;2023-08-30T14:30:23;21.00;99.90
4429;DHT22;2227;47.810;8.810;2023-08-30T14:32:50;20.90;99.90
4429;DHT22;2227;47.810;8.810;2023-08-30T14:35:18;21.00;99.90
4429;DHT22;2227;47.810;8.810;2023-08-30T14:37:47;21.10;99.90
4429;DHT22;2227;47.810;8.810;2023-08-30T14:40:14;21.20;99.90
4429;DHT22;2227;47.810;8.810;2023-08-30T14:42:40;21.30;99.90
4429;DHT22;2227;47.810;8.810;2023-08-30T14:45:07;21.40;99.90
4429;DHT22;2227;47.810;8.810;2023-08-30T14:47:34;21.40;99.90
4429;DHT22;2227;47.810;8.810;2023-08-30T14:50:01;21.50;99.90
4429;DHT22;2227;47.810;8.810;2023-08-30T14:52:29;21.50;99.90
4429;DHT22;2227;47.810;8.810;2023-08-30T14:54:56;21.50;99.90
4429;DHT22;2227;47.810;8.810;2023-08-30T14:57:23;21.50;99.90
4429;DHT22;2227;47.810;8.810;2023-08-30T14:59:51;21.50;99.90
4429;DHT22;2227;47.810;8.810;2023-08-30T15:02:18;21.50;99.90
4429;DHT22;2227;47.810;8.810;2023-08-30T15:04:45;21.80;99.90
4429;DHT22;2227;47.810;8.810;2023-08-30T15:07:11;22.00;99.90
4429;DHT22;2227;47.810;8.810;2023-08-30T15:09:38;22.10;99.90
4429;DHT22;2227;47.810;8.810;2023-08-30T15:12:05;22.20;99.90
4429;DHT22;2227;47.810;8.810;2023-08-30T15:14:32;22.10;99.90
4429;DHT22;2227;47.810;8.810;2023-08-30T15:17:00;22.00;99.90
4429;DHT22;2227;47.810;8.810;2023-08-30T15:19:27;21.80;99.90
4429;DHT22;2227;47.810;8.810;2023-08-30T15:21:54;21.60;99.90
4429;DHT22;2227;47.810;8.810;2023-08-30T15:24:20;21.50;99.90
4429;DHT22;2227;47.810;8.810;2023-08-30T15:26:47;21.40;99.90
4429;DHT22;2227;47.810;8.810;2023-08-30T15:29:15;21.30;99.90
4429;DHT22;2227;47.810;8.810;2023-08-30T15:31:42;21.30;99.90
4429;DHT22;2227;47.810;8.810;2023-08-30T15:34:09;21.30;99.90
4429;DHT22;2227;47.810;8.810;2023-08-30T15:36:36;21.30;99.90
4429;DHT22;2227;47.810;8.810;2023-08-30T15:39:03;21.10;99.90
4429;DHT22;2227;47.810;8.810;2023-08-30T15:41:29;21.10;99.90
4429;DHT22;2227;47.810;8.810;2023-08-30T15:43:56;21.00;99.90
4429;DHT22;2227;47.810;8.810;2023-08-30T15:46:23;20.90;99.90
4429;DHT22;2227;47.810;8.810;2023-08-30T15:48:50;20.70;99.90
4429;DHT22;2227;47.810;8.810;2023-08-30T15:51:16;20.60;99.90
4429;DHT22;2227;47.810;8.810;2023-08-30T15:53:50;20.50;99.90
4429;DHT22;2227;47.810;8.810;2023-08-30T15:56:17;20.30;99.90
4429;DHT22;2227;47.810;8.810;2023-08-30T15:58:46;20.10;99.90
4429;DHT22;2227;47.810;8.810;2023-08-30T16:01:13;19.80;99.90
4429;DHT22;2227;47.810;8.810;2023-08-30T16:03:42;19.50;99.90
4429;DHT22;2227;47.810;8.810;2023-08-30T16:06:09;19.20;99.90
4429;DHT22;2227;47.810;8.810;2023-08-30T16:08:36;19.00;99.90
4429;DHT22;2227;47.810;8.810;2023-08-30T16:11:04;18.80;99.90
4429;DHT22;2227;47.810;8.810;2023-08-30T16:13:31;18.60;99.90
4429;DHT22;2227;47.810;8.810;2023-08-30T16:15:58;18.20;99.90
4429;DHT22;2227;47.810;8.810;2023-08-30T16:18:28;18.10;99.90
4429;DHT22;2227;47.810;8.810;2023-08-30T16:20:55;18.10;99.90
4429;DHT22;2227;47.810;8.810;2023-08-30T16:23:22;18.10;99.90
4429;DHT22;2227;47.810;8.810;2023-08-30T16:25:50;18.00;99.90
4429;DHT22;2227;47.810;8.810;2023-08-30T16:28:17;18.00;99.90
4429;DHT22;2227;47.810;8.810;2023-08-30T16:30:43;17.90;99.90
4429;DHT22;2227;47.810;8.810;2023-08-30T16:33:10;17.80;99.90
4429;DHT22;2227;47.810;8.810;2023-08-30T16:35:37;17.80;99.90
4429;DHT22;2227;47.810;8.810;2023-08-30T16:38:04;17.70;99.90
4429;DHT22;2227;47.810;8.810;2023-08-30T16:40:32;17.70;99.90
4429;DHT22;2227;47.810;8.810;2023-08-30T16:43:03;17.60;99.90
4429;DHT22;2227;47.810;8.810;2023-08-30T16:45:30;17.60;99.90
4429;DHT22;2227;47.810;8.810;2023-08-30T16:47:57;17.50;99.90
4429;DHT22;2227;47.810;8.810;2023-08-30T16:50:33;17.50;99.90
4429;DHT22;2227;47.810;8.810;2023-08-30T16:53:00;17.50;99.90
4429;DHT22;2227;47.810;8.810;2023-08-30T16:55:27;17.60;99.90
4429;DHT22;2227;47.810;8.810;2023-08-30T16:57:54;17.70;99.90
4429;DHT22;2227;47.810;8.810;2023-08-30T17:00:21;17.90;99.90
4429;DHT22;2227;47.810;8.810;2023-08-30T17:02:48;18.00;99.90
4429;DHT22;2227;47.810;8.810;2023-08-30T17:05:15;18.10;99.90
4429;DHT22;2227;47.810;8.810;2023-08-30T17:07:42;18.00;99.90
4429;DHT22;2227;47.810;8.810;2023-08-30T17:10:09;17.90;99.90
4429;DHT22;2227;47.810;8.810;2023-08-30T17:12:36;18.00;99.90
4429;DHT22;2227;47.810;8.810;2023-08-30T17:15:04;18.10;99.90
4429;DHT22;2227;47.810;8.810;2023-08-30T17:17:31;18.20;99.90
4429;DHT22;2227;47.810;8.810;2023-08-30T17:19:58;18.30;99.90
4429;DHT22;2227;47.810;8.810;2023-08-30T17:22:25;18.30;99.90
4429;DHT22;2227;47.810;8.810;2023-08-30T17:24:51;18.30;99.90
4429;DHT22;2227;47.810;8.810;2023-08-30T17:27:18;18.30;99.90
4429;DHT22;2227;47.810;8.810;2023-08-30T17:29:45;18.30;99.90
4429;DHT22;2227;47.810;8.810;2023-08-30T17:32:12;18.20;99.90
4429;DHT22;2227;47.810;8.810;2023-08-30T17:34:38;18.20;99.90
4429;DHT22;2227;47.810;8.810;2023-08-30T17:37:07;18.20;99.90
4429;DHT22;2227;47.810;8.810;2023-08-30T17:39:36;18.00;99.90
4429;DHT22;2227;47.810;8.810;2023-08-30T17:42:03;18.00;99.90
4429;DHT22;2227;47.810;8.810;2023-08-30T17:44:31;17.80;99.90
4429;DHT22;2227;47.810;8.810;2023-08-30T17:47:00;17.70;99.90
4429;DHT22;2227;47.810;8.810;2023-08-30T17:49:27;17.60;99.90
4429;DHT22;2227;47.810;8.810;2023-08-30T17:51:54;17.40;99.90
4429;DHT22;2227;47.810;8.810;2023-08-30T17:54:21;17.10;99.90
4429;DHT22;2227;47.810;8.810;2023-08-30T17:56:47;17.00;99.90
4429;DHT22;2227;47.810;8.810;2023-08-30T17:59:14;16.90;99.90
4429;DHT22;2227;47.810;8.810;2023-08-30T18:01:45;16.90;99.90
4429;DHT22;2227;47.810;8.810;2023-08-30T18:04:12;16.80;99.90
4429;DHT22;2227;47.810;8.810;2023-08-30T18:06:39;16.60;99.90
4429;DHT22;2227;47.810;8.810;2023-08-30T18:09:06;16.50;99.90
4429;DHT22;2227;47.810;8.810;2023-08-30T18:11:41;16.50;99.90
4429;DHT22;2227;47.810;8.810;2023-08-30T18:14:08;16.30;99.90
4429;DHT22;2227;47.810;8.810;2023-08-30T18:16:34;16.20;99.90
4429;DHT22;2227;47.810;8.810;2023-08-30T18:19:01;16.20;99.90
4429;DHT22;2227;47.810;8.810;2023-08-30T18:21:30;16.10;99.90
4429;DHT22;2227;47.810;8.810;2023-08-30T18:24:14;16.00;99.90
4429;DHT22;2227;47.810;8.810;2023-08-30T18:26:41;15.90;99.90
4429;DHT22;2227;47.810;8.810;2023-08-30T18:29:07;15.80;99.90
4429;DHT22;2227;47.810;8.810;2023-08-30T18:31:34;15.60;99.90
4429;DHT22;2227;47.810;8.810;2023-08-30T18:34:01;15.60;99.90
4429;DHT22;2227;47.810;8.810;2023-08-30T18:36:28;15.60;99.90
4429;DHT22;2227;47.810;8.810;2023-08-30T18:38:55;15.60;99.90
4429;DHT22;2227;47.810;8.810;2023-08-30T18:41:22;15.60;99.90
4429;DHT22;2227;47.810;8.810;2023-08-30T18:43:49;15.60;99.90
4429;DHT22;2227;47.810;8.810;2023-08-30T18:46:15;15.50;99.90
4429;DHT22;2227;47.810;8.810;2023-08-30T18:48:46;15.50;99.90
4429;DHT22;2227;47.810;8.810;2023-08-30T18:51:13;15.50;99.90
4429;DHT22;2227;47.810;8.810;2023-08-30T18:53:40;15.50;99.90
4429;DHT22;2227;47.810;8.810;2023-08-30T18:56:07;15.50;99.90
4429;DHT22;2227;47.810;8.810;2023-08-30T18:58:33;15.60;99.90
4429;DHT22;2227;47.810;8.810;2023-08-30T19:01:00;15.50;99.90
4429;DHT22;2227;47.810;8.810;2023-08-30T19:03:27;15.40;99.90
4429;DHT22;2227;47.810;8.810;2023-08-30T19:05:54;15.40;99.90
4429;DHT22;2227;47.810;8.810;2023-08-30T19:08:21;15.40;99.90
4429;DHT22;2227;47.810;8.810;2023-08-30T19:10:48;15.40;99.90
4429;DHT22;2227;47.810;8.810;2023-08-30T19:13:15;15.40;99.90
4429;DHT22;2227;47.810;8.810;2023-08-30T19:15:42;15.30;99.90
4429;DHT22;2227;47.810;8.810;2023-08-30T19:18:09;15.20;99.90
4429;DHT22;2227;47.810;8.810;2023-08-30T19:20:36;15.20;99.90
4429;DHT22;2227;47.810;8.810;2023-08-30T19:23:03;15.10;99.90
4429;DHT22;2227;47.810;8.810;2023-08-30T19:25:31;15.00;99.90
4429;DHT22;2227;47.810;8.810;2023-08-30T19:27:58;15.00;99.90
4429;DHT22;2227;47.810;8.810;2023-08-30T19:30:25;14.90;99.90
4429;DHT22;2227;47.810;8.810;2023-08-30T19:32:52;14.90;99.90
4429;DHT22;2227;47.810;8.810;2023-08-30T19:35:19;14.90;99.90
4429;DHT22;2227;47.810;8.810;2023-08-30T19:37:46;14.90;99.90
4429;DHT22;2227;47.810;8.810;2023-08-30T19:40:15;14.80;99.90
4429;DHT22;2227;47.810;8.810;2023-08-30T19:42:42;14.70;99.90
4429;DHT22;2227;47.810;8.810;2023-08-30T19:45:11;14.70;99.90
4429;DHT22;2227;47.810;8.810;2023-08-30T19:47:37;14.60;99.90
4429;DHT22;2227;47.810;8.810;2023-08-30T19:50:04;14.60;99.90
4429;DHT22;2227;47.810;8.810;2023-08-30T19:52:31;14.50;99.90
4429;DHT22;2227;47.810;8.810;2023-08-30T19:54:58;14.60;99.90